Chisholm, Minnesota
Current Conditions -  °F | °C
As of 1:53 AM on Sunday 26 Oct 2014 (Local Time) from KHIB Reporting Station
Clear Clear  
Wind Chill: 29°   Ceiling: Unl
Heat Index: 33°   Visibility: 10mi
Dew Point: 24°   Wind: 5mph
Humidity: 70%   Direction: 280°W
Pressure: 29.97"   Gusts: NA
Location:  47.49°N, 92.88°W
Report Text: KHIB 260653Z AUTO 28004KT 10SM CLR 01/M04 A2997 RMK AO2 SLP161 T00061044
Loading
Personal Weather Stations






























Interactive Weather Map
Tropical Storm Tracking
New forecast layout! Learn more

10-Day Weather Forecast

Advertisements
Track Severe Weather on mobile